createdAt,value
2018-08-09T00:01:37.275Z,23.50
2018-08-09T00:03:39.474Z,23.60
2018-08-09T00:05:41.637Z,23.60
2018-08-09T00:07:44.473Z,23.60
2018-08-09T00:09:46.624Z,23.60
2018-08-09T00:11:49.299Z,23.60
2018-08-09T00:13:51.470Z,23.50
2018-08-09T00:15:53.589Z,23.60
2018-08-09T00:17:55.785Z,23.60
2018-08-09T00:19:57.949Z,23.50
2018-08-09T00:22:00.074Z,23.40
2018-08-09T00:24:02.373Z,23.40
2018-08-09T00:26:04.768Z,23.40
2018-08-09T00:28:06.881Z,23.30
2018-08-09T00:30:09.018Z,23.40
2018-08-09T00:32:11.428Z,23.40
2018-08-09T00:34:13.533Z,23.30
2018-08-09T00:36:15.718Z,23.40
2018-08-09T00:38:17.883Z,23.30
2018-08-09T00:40:19.996Z,23.30
2018-08-09T00:42:22.144Z,23.40
2018-08-09T00:44:24.277Z,23.40
2018-08-09T00:46:26.382Z,23.40
2018-08-09T00:48:28.528Z,23.30
2018-08-09T00:50:30.949Z,23.20
2018-08-09T00:52:33.062Z,23.20
2018-08-09T00:54:35.185Z,23.20
2018-08-09T00:56:37.359Z,23.20
2018-08-09T00:58:39.526Z,23.20
2018-08-09T01:00:41.654Z,23.10
2018-08-09T01:02:43.781Z,23.10
2018-08-09T01:04:45.932Z,23.00
2018-08-09T01:06:48.095Z,22.90
2018-08-09T01:08:55.893Z,22.60
2018-08-09T01:10:58.056Z,22.60
2018-08-09T01:13:01.013Z,22.60
2018-08-09T01:15:03.162Z,22.70
2018-08-09T01:17:05.366Z,22.80
2018-08-09T01:19:07.519Z,22.90
2018-08-09T01:21:10.301Z,23.00
2018-08-09T01:23:19.734Z,22.90
2018-08-09T01:25:21.877Z,22.90
2018-08-09T01:27:24.229Z,22.90
2018-08-09T01:29:26.523Z,22.80
2018-08-09T01:31:33.544Z,22.80
2018-08-09T01:33:35.677Z,22.80
2018-08-09T01:35:37.835Z,22.80
2018-08-09T01:37:40.007Z,22.90
2018-08-09T01:39:42.161Z,22.90
2018-08-09T01:41:54.894Z,22.90
2018-08-09T01:44:00.882Z,22.90
2018-08-09T01:46:03.037Z,23.00
2018-08-09T01:48:05.200Z,22.90
2018-08-09T01:50:07.325Z,22.80
2018-08-09T01:52:09.485Z,22.70
2018-08-09T01:54:11.601Z,22.70
2018-08-09T01:56:13.785Z,22.70
2018-08-09T01:58:15.991Z,22.70
2018-08-09T02:00:18.117Z,22.60
2018-08-09T02:02:20.286Z,22.50
2018-08-09T02:04:22.449Z,22.50
2018-08-09T02:06:24.583Z,22.60
2018-08-09T02:08:26.730Z,22.70
2018-08-09T02:10:29.437Z,22.80
2018-08-09T02:12:31.579Z,22.80
2018-08-09T02:14:33.742Z,22.80
2018-08-09T02:16:35.907Z,22.80
2018-08-09T02:18:38.498Z,22.80
2018-08-09T02:20:40.626Z,22.70
2018-08-09T02:22:42.766Z,22.80
2018-08-09T02:24:44.951Z,22.80
2018-08-09T02:26:47.094Z,22.70
2018-08-09T02:28:49.229Z,22.70
2018-08-09T02:30:51.424Z,22.70
2018-08-09T02:32:53.542Z,22.60
2018-08-09T02:34:55.676Z,22.60
2018-08-09T02:36:57.818Z,22.70
2018-08-09T02:38:59.966Z,22.60
2018-08-09T02:41:02.090Z,22.60
2018-08-09T02:43:04.306Z,22.70
2018-08-09T02:45:06.752Z,22.70
2018-08-09T02:47:08.882Z,22.70
2018-08-09T02:49:11.013Z,22.60
2018-08-09T02:51:13.141Z,22.60
2018-08-09T02:53:15.274Z,22.50
2018-08-09T02:55:17.457Z,22.30
2018-08-09T02:57:19.636Z,22.10
2018-08-09T02:59:21.798Z,22.10
2018-08-09T03:01:23.922Z,22.20
2018-08-09T03:03:26.062Z,22.40
2018-08-09T03:05:28.221Z,22.50
2018-08-09T03:07:30.402Z,22.50
2018-08-09T03:09:32.540Z,22.40
2018-08-09T03:11:34.695Z,22.40
2018-08-09T03:13:36.794Z,22.40
2018-08-09T03:15:38.921Z,22.40
2018-08-09T03:17:41.052Z,22.30
2018-08-09T03:21:52.418Z,22.10
2018-08-09T03:23:54.566Z,22.10
2018-08-09T03:25:57.073Z,22.20
2018-08-09T03:27:59.210Z,22.10
2018-08-09T03:30:01.465Z,22.10
2018-08-09T03:32:03.638Z,22.10
2018-08-09T03:34:05.765Z,22.10
2018-08-09T03:36:07.929Z,22.00
2018-08-09T03:38:10.257Z,22.10
2018-08-09T03:40:12.393Z,22.10
2018-08-09T03:42:14.554Z,22.10
2018-08-09T03:44:17.054Z,22.10
2018-08-09T03:46:20.029Z,22.10
2018-08-09T03:48:22.174Z,22.10
2018-08-09T03:50:24.327Z,22.00
2018-08-09T03:52:26.474Z,21.90
2018-08-09T03:54:28.590Z,21.70
2018-08-09T03:56:30.741Z,21.50
2018-08-09T03:58:32.887Z,21.50
2018-08-09T04:00:35.012Z,21.50
2018-08-09T04:02:38.077Z,21.50
2018-08-09T04:04:40.247Z,21.50
2018-08-09T04:06:42.374Z,21.00
2018-08-09T04:08:44.811Z,21.10
2018-08-09T04:10:46.919Z,21.10
2018-08-09T04:12:49.034Z,20.70
2018-08-09T04:14:51.136Z,20.20
2018-08-09T04:16:53.283Z,20.00
2018-08-09T04:18:55.574Z,20.00
2018-08-09T04:20:57.726Z,20.20
2018-08-09T04:22:59.885Z,20.10
2018-08-09T04:25:02.067Z,20.30
2018-08-09T04:27:04.530Z,20.60
2018-08-09T04:29:06.690Z,20.60
2018-08-09T04:31:08.822Z,20.90
2018-08-09T04:33:10.942Z,21.10
2018-08-09T04:35:13.099Z,21.20
2018-08-09T04:37:15.247Z,20.80
2018-08-09T04:39:17.378Z,20.40
2018-08-09T04:41:19.532Z,20.30
2018-08-09T04:43:21.682Z,20.10
2018-08-09T04:45:23.808Z,20.10
2018-08-09T04:47:26.235Z,20.40
2018-08-09T04:49:28.364Z,20.80
2018-08-09T04:51:30.489Z,21.00
2018-08-09T04:53:32.622Z,21.10
2018-08-09T04:55:34.861Z,21.20
2018-08-09T04:57:37.002Z,21.30
2018-08-09T04:59:39.110Z,21.60
2018-08-09T05:01:41.211Z,21.80
2018-08-09T05:03:43.341Z,21.90
2018-08-09T05:05:45.457Z,21.80
2018-08-09T05:07:47.577Z,21.70
2018-08-09T05:09:49.701Z,21.50
2018-08-09T05:11:51.890Z,21.00
2018-08-09T05:13:54.009Z,20.70
2018-08-09T05:15:56.174Z,20.70
2018-08-09T05:17:58.321Z,20.70
2018-08-09T05:20:00.442Z,20.30
2018-08-09T05:22:02.541Z,20.00
2018-08-09T05:24:04.666Z,20.20
2018-08-09T05:26:07.014Z,20.40
2018-08-09T05:28:09.182Z,20.60
2018-08-09T05:30:11.331Z,20.90
2018-08-09T05:32:13.758Z,21.10
2018-08-09T05:34:15.920Z,21.20
2018-08-09T05:36:20.090Z,21.10
2018-08-09T05:38:22.234Z,21.00
2018-08-09T05:40:24.352Z,21.00
2018-08-09T05:42:26.472Z,20.90
2018-08-09T05:44:28.613Z,20.40
2018-08-09T05:46:30.775Z,20.40
2018-08-09T05:48:33.047Z,20.50
2018-08-09T05:50:35.202Z,21.10
2018-08-09T05:52:37.478Z,21.40
2018-08-09T05:54:39.601Z,21.50
2018-08-09T05:56:41.770Z,21.70
2018-08-09T05:58:43.930Z,21.90
2018-08-09T06:00:46.091Z,21.50
2018-08-09T06:02:48.261Z,21.50
2018-08-09T06:04:50.383Z,21.10
2018-08-09T06:06:52.497Z,21.30
2018-08-09T06:08:54.631Z,21.60
2018-08-09T06:10:56.761Z,21.80
2018-08-09T06:12:58.861Z,21.90
2018-08-09T06:15:01.153Z,21.70
2018-08-09T06:17:03.302Z,21.50
2018-08-09T06:19:06.061Z,21.40
2018-08-09T06:21:08.190Z,21.50
2018-08-09T06:23:10.326Z,21.30
2018-08-09T06:25:12.524Z,21.20
2018-08-09T06:27:14.689Z,21.30
2018-08-09T06:29:17.143Z,21.20
2018-08-09T06:31:20.244Z,21.40
2018-08-09T06:33:22.355Z,21.60
2018-08-09T06:35:24.501Z,21.90
2018-08-09T06:37:26.618Z,21.80
2018-08-09T06:39:28.733Z,21.60
2018-08-09T06:41:30.918Z,21.90
2018-08-09T06:43:33.245Z,21.90
2018-08-09T06:45:35.347Z,22.00
2018-08-09T06:47:37.565Z,22.00
2018-08-09T06:49:39.677Z,22.20
2018-08-09T06:51:41.853Z,22.20
2018-08-09T06:53:44.052Z,22.40
2018-08-09T06:55:46.133Z,22.50
2018-08-09T06:57:48.273Z,22.50
2018-08-09T06:59:50.461Z,22.70
2018-08-09T07:01:52.595Z,23.00
2018-08-09T07:03:54.714Z,23.10
2018-08-09T07:05:56.814Z,23.00
2018-08-09T07:07:58.980Z,22.70
2018-08-09T07:10:01.073Z,22.50
2018-08-09T07:12:03.209Z,22.80
2018-08-09T07:14:05.442Z,22.70
2018-08-09T07:16:07.578Z,22.50
2018-08-09T07:18:09.726Z,22.20
2018-08-09T07:20:11.838Z,22.20
2018-08-09T07:22:13.942Z,22.50
2018-08-09T07:24:16.429Z,22.60
2018-08-09T07:26:18.588Z,22.80
2018-08-09T07:28:20.734Z,23.00
2018-08-09T07:30:22.883Z,23.20
2018-08-09T07:32:25.010Z,23.00
2018-08-09T07:34:27.247Z,23.30
2018-08-09T07:36:29.423Z,23.70
2018-08-09T07:38:31.543Z,23.90
2018-08-09T07:40:33.661Z,24.30
2018-08-09T07:42:35.810Z,24.30
2018-08-09T07:44:37.957Z,24.20
2018-08-09T07:46:40.102Z,24.10
2018-08-09T07:48:42.309Z,23.90
2018-08-09T07:50:44.617Z,23.90
2018-08-09T07:52:46.801Z,24.00
2018-08-09T07:54:48.966Z,24.10
2018-08-09T07:56:51.166Z,24.10
2018-08-09T07:58:53.346Z,24.10
2018-08-09T08:00:55.647Z,24.30
2018-08-09T08:02:57.745Z,24.40
2018-08-09T08:04:59.877Z,24.40
2018-08-09T08:07:02.040Z,24.60
2018-08-09T08:09:07.134Z,24.30
2018-08-09T08:11:09.274Z,24.40
2018-08-09T08:13:11.494Z,24.30
2018-08-09T08:15:13.764Z,24.20
2018-08-09T08:17:15.901Z,24.10
2018-08-09T08:19:18.071Z,23.60
2018-08-09T08:21:20.224Z,23.80
2018-08-09T08:23:22.350Z,24.20
2018-08-09T08:25:24.485Z,24.30
2018-08-09T08:27:27.086Z,24.40
2018-08-09T08:29:29.230Z,24.50
2018-08-09T08:31:31.362Z,24.70
2018-08-09T08:33:33.543Z,24.60
2018-08-09T08:35:35.722Z,24.20
2018-08-09T08:37:38.266Z,24.50
2018-08-09T08:39:40.460Z,24.60
2018-08-09T08:41:42.728Z,24.60
2018-08-09T08:43:45.026Z,24.90
2018-08-09T08:45:47.240Z,25.00
2018-08-09T08:47:50.543Z,25.50
2018-08-09T08:49:52.661Z,25.40
2018-08-09T08:51:54.910Z,25.50
2018-08-09T08:53:57.095Z,25.30
2018-08-09T08:55:59.137Z,25.30
2018-08-09T08:58:01.263Z,25.60
2018-08-09T09:00:05.110Z,25.50
2018-08-09T09:02:07.433Z,25.60
2018-08-09T09:04:09.552Z,25.90
2018-08-09T09:06:11.639Z,26.00
2018-08-09T09:08:13.749Z,26.30
2018-08-09T09:10:15.879Z,25.90
2018-08-09T09:12:18.026Z,25.80
2018-08-09T09:14:20.229Z,26.60
2018-08-09T09:16:22.334Z,27.10
2018-08-09T09:18:24.656Z,26.90
2018-08-09T09:20:26.805Z,26.90
2018-08-09T09:22:28.899Z,27.00
2018-08-09T09:24:31.011Z,26.90
2018-08-09T09:26:33.425Z,26.70
2018-08-09T09:28:35.545Z,26.50
2018-08-09T09:30:37.654Z,26.70
2018-08-09T09:32:39.781Z,26.70
2018-08-09T09:34:41.917Z,26.70
2018-08-09T09:36:44.055Z,26.70
2018-08-09T09:38:46.173Z,26.70
2018-08-09T09:40:48.309Z,26.80
2018-08-09T09:42:50.429Z,27.00
2018-08-09T09:44:52.529Z,27.00
2018-08-09T09:46:54.909Z,27.70
2018-08-09T09:48:57.060Z,27.70
2018-08-09T09:50:59.358Z,27.50
2018-08-09T09:53:01.490Z,27.30
2018-08-09T09:55:04.354Z,27.30
2018-08-09T09:57:06.518Z,28.00
2018-08-09T09:59:08.631Z,28.70
2018-08-09T10:01:16.529Z,29.10
2018-08-09T10:03:18.729Z,28.20
2018-08-09T10:05:20.910Z,28.80
2018-08-09T10:07:23.062Z,28.90
2018-08-09T10:09:25.245Z,28.30
2018-08-09T10:11:27.435Z,28.00
2018-08-09T10:13:29.550Z,27.20
2018-08-09T10:15:31.686Z,27.10
2018-08-09T10:17:33.882Z,27.30
2018-08-09T10:19:36.021Z,28.30
2018-08-09T10:21:38.115Z,29.10
2018-08-09T10:23:40.233Z,28.60
2018-08-09T10:25:42.374Z,28.30
2018-08-09T10:27:44.505Z,28.20
2018-08-09T10:29:46.626Z,28.00
2018-08-09T10:31:48.799Z,28.50
2018-08-09T10:33:50.899Z,29.00
2018-08-09T10:35:53.201Z,29.00
2018-08-09T10:37:55.284Z,28.70
2018-08-09T10:39:57.720Z,29.10
2018-08-09T10:41:59.793Z,28.50
2018-08-09T10:44:01.975Z,28.40
2018-08-09T10:46:04.103Z,28.20
2018-08-09T10:48:06.261Z,28.00
2018-08-09T10:50:08.378Z,28.60
2018-08-09T10:52:10.508Z,29.30
2018-08-09T10:54:12.593Z,29.20
2018-08-09T10:56:14.729Z,29.40
2018-08-09T10:58:17.289Z,29.20
2018-08-09T11:00:19.365Z,28.50
2018-08-09T11:02:21.485Z,28.10
2018-08-09T11:04:23.581Z,27.80
2018-08-09T11:06:25.671Z,28.10
2018-08-09T11:08:27.785Z,28.10
2018-08-09T11:10:29.885Z,28.50
2018-08-09T11:12:34.014Z,29.00
2018-08-09T11:14:36.299Z,29.10
2018-08-09T11:16:38.950Z,28.90
2018-08-09T11:18:41.818Z,29.00
2018-08-09T11:20:44.798Z,29.20
2018-08-09T11:22:47.143Z,29.00
2018-08-09T11:24:49.411Z,28.50
2018-08-09T11:26:51.711Z,28.40
2018-08-09T11:28:54.055Z,28.30
2018-08-09T11:30:56.543Z,27.90
2018-08-09T11:32:58.944Z,28.00
2018-08-09T11:35:01.414Z,27.50
2018-08-09T11:37:03.904Z,27.60
2018-08-09T11:39:08.306Z,27.40
2018-08-09T11:41:10.616Z,27.00
2018-08-09T11:43:12.909Z,27.20
2018-08-09T11:45:15.275Z,27.20
2018-08-09T11:47:17.478Z,27.40
2018-08-09T11:49:19.812Z,27.30
2018-08-09T11:51:22.006Z,27.00
2018-08-09T11:53:24.528Z,26.80
2018-08-09T11:55:26.886Z,27.10
2018-08-09T11:57:29.297Z,27.20
2018-08-09T11:59:31.540Z,27.40
2018-08-09T12:01:33.769Z,27.30
2018-08-09T12:03:36.113Z,27.50
2018-08-09T12:05:38.310Z,27.50
2018-08-09T12:07:40.733Z,27.60
2018-08-09T12:09:42.924Z,27.50
2018-08-09T12:11:45.191Z,27.40
2018-08-09T12:13:47.590Z,27.30
2018-08-09T12:15:49.831Z,27.20
2018-08-09T12:17:52.142Z,27.60
2018-08-09T12:19:54.744Z,27.70
2018-08-09T12:21:57.043Z,27.70
2018-08-09T12:23:59.397Z,28.10
2018-08-09T12:26:01.712Z,28.50
2018-08-09T12:28:04.853Z,28.70
2018-08-09T12:30:09.415Z,28.60
2018-08-09T12:32:11.612Z,28.50
2018-08-09T12:34:13.848Z,28.20
2018-08-09T12:36:16.065Z,28.10
2018-08-09T12:38:18.289Z,28.00
2018-08-09T12:40:20.564Z,29.10
2018-08-09T12:42:22.922Z,30.00
2018-08-09T12:44:25.196Z,30.40
2018-08-09T12:46:27.604Z,30.80
2018-08-09T12:48:29.900Z,30.60
2018-08-09T12:50:32.198Z,30.80
2018-08-09T12:52:34.413Z,30.80
2018-08-09T12:54:36.610Z,30.90
2018-08-09T12:56:38.823Z,31.00
2018-08-09T12:58:41.055Z,31.20
2018-08-09T13:00:43.331Z,31.20
2018-08-09T13:02:45.625Z,30.80
2018-08-09T13:04:54.231Z,30.40
2018-08-09T13:06:58.193Z,30.30
2018-08-09T13:09:01.564Z,30.60
2018-08-09T13:11:04.168Z,30.60
2018-08-09T13:13:06.317Z,30.40
2018-08-09T13:15:11.008Z,30.40
2018-08-09T13:17:13.706Z,30.10
2018-08-09T13:19:16.004Z,30.00
2018-08-09T13:21:18.368Z,30.10
2018-08-09T13:23:20.600Z,29.70
2018-08-09T13:25:22.681Z,29.50
2018-08-09T13:27:24.795Z,29.80
2018-08-09T13:29:26.936Z,29.40
2018-08-09T13:31:29.062Z,29.20
2018-08-09T13:33:31.250Z,29.50
2018-08-09T13:35:33.953Z,29.60
2018-08-09T13:37:36.081Z,29.60
2018-08-09T13:39:38.210Z,29.50
2018-08-09T13:41:41.030Z,29.20
2018-08-09T13:43:43.215Z,29.30
2018-08-09T13:45:45.346Z,29.20
2018-08-09T13:47:47.481Z,29.10
2018-08-09T13:49:49.581Z,29.10
2018-08-09T13:51:51.688Z,29.00
2018-08-09T13:53:53.817Z,29.00
2018-08-09T13:55:55.902Z,29.00
2018-08-09T13:57:58.228Z,29.00
2018-08-09T14:00:00.460Z,29.10
2018-08-09T14:02:02.597Z,29.20
2018-08-09T14:04:04.781Z,29.30
2018-08-09T14:06:06.857Z,29.50
2018-08-09T14:08:09.071Z,29.30
2018-08-09T14:10:11.634Z,29.50
2018-08-09T14:12:13.931Z,29.60
2018-08-09T14:14:16.066Z,30.00
2018-08-09T14:16:18.201Z,29.90
2018-08-09T14:18:20.333Z,30.80
2018-08-09T14:20:22.482Z,32.00
2018-08-09T14:22:24.629Z,32.30
2018-08-09T14:24:26.781Z,32.70
2018-08-09T14:26:28.909Z,31.70
2018-08-09T14:28:31.109Z,31.70
2018-08-09T14:30:33.381Z,32.10
2018-08-09T14:32:35.653Z,32.30
2018-08-09T14:34:37.825Z,31.70
2018-08-09T14:36:39.957Z,32.30
2018-08-09T14:38:42.181Z,32.20
2018-08-09T14:40:44.263Z,32.60
2018-08-09T14:42:46.387Z,32.30
2018-08-09T14:44:48.506Z,32.40
2018-08-09T14:46:50.632Z,32.60
2018-08-09T14:48:52.780Z,32.70
2018-08-09T14:50:54.891Z,34.10
2018-08-09T14:52:56.997Z,33.70
2018-08-09T14:54:59.126Z,32.40
2018-08-09T14:57:01.241Z,31.20
2018-08-09T14:59:03.581Z,31.50
2018-08-09T15:01:05.751Z,31.40
2018-08-09T15:03:08.055Z,31.50
2018-08-09T15:05:10.194Z,32.00
2018-08-09T15:07:12.317Z,31.30
2018-08-09T15:09:14.477Z,31.50
2018-08-09T15:11:16.591Z,31.20
2018-08-09T15:13:18.714Z,30.70
2018-08-09T15:15:20.869Z,30.90
2018-08-09T15:17:23.011Z,31.30
2018-08-09T15:19:25.213Z,31.20
2018-08-09T15:21:27.310Z,30.80
2018-08-09T15:23:29.679Z,30.90
2018-08-09T15:25:32.269Z,30.90
2018-08-09T15:27:34.446Z,30.70
2018-08-09T15:29:36.553Z,30.60
2018-08-09T15:31:38.653Z,30.70
2018-08-09T15:33:40.794Z,30.50
2018-08-09T15:35:42.970Z,30.20
2018-08-09T15:37:45.110Z,30.20
2018-08-09T15:39:47.477Z,30.20
2018-08-09T15:41:49.645Z,30.20
2018-08-09T15:43:51.776Z,30.00
2018-08-09T15:45:53.945Z,30.10
2018-08-09T15:47:56.142Z,30.20
2018-08-09T15:49:58.262Z,29.90
2018-08-09T15:52:00.693Z,29.80
2018-08-09T15:54:02.889Z,29.70
2018-08-09T15:56:05.255Z,29.90
2018-08-09T15:58:07.385Z,29.80
2018-08-09T16:00:19.612Z,29.80
2018-08-09T16:02:21.779Z,29.90
2018-08-09T16:04:23.932Z,29.80
2018-08-09T16:06:26.066Z,29.80
2018-08-09T16:08:28.417Z,29.80
2018-08-09T16:10:30.540Z,29.70
2018-08-09T16:12:32.705Z,29.70
2018-08-09T16:14:34.822Z,29.50
2018-08-09T16:16:37.062Z,29.50
2018-08-09T16:18:39.212Z,29.50
2018-08-09T16:20:41.297Z,29.40
2018-08-09T16:22:44.128Z,29.30
2018-08-09T16:24:46.219Z,29.30
2018-08-09T16:26:48.365Z,29.00
2018-08-09T16:28:50.479Z,28.90
2018-08-09T16:30:52.613Z,28.80
2018-08-09T16:32:54.729Z,28.80
2018-08-09T16:34:56.905Z,28.80
2018-08-09T16:36:59.154Z,28.80
2018-08-09T16:39:01.275Z,28.70
2018-08-09T16:41:03.402Z,28.70
2018-08-09T16:43:05.573Z,28.60
2018-08-09T16:45:08.703Z,28.40
2018-08-09T16:47:10.840Z,28.50
2018-08-09T16:49:12.966Z,28.50
2018-08-09T16:51:15.106Z,28.30
2018-08-09T16:53:17.212Z,28.20
2018-08-09T16:55:20.357Z,28.00
2018-08-09T16:57:22.845Z,28.10
2018-08-09T16:59:24.957Z,28.10
2018-08-09T17:01:27.110Z,28.00
2018-08-09T17:03:29.234Z,27.90
2018-08-09T17:05:31.362Z,27.80
2018-08-09T17:07:33.526Z,27.90
2018-08-09T17:09:35.690Z,27.80
2018-08-09T17:11:41.769Z,27.90
2018-08-09T17:13:44.010Z,27.80
2018-08-09T17:15:46.142Z,27.70
2018-08-09T17:17:48.469Z,27.60
2018-08-09T17:19:50.862Z,27.70
2018-08-09T17:21:52.957Z,27.60
2018-08-09T17:23:55.072Z,27.50
2018-08-09T17:25:57.213Z,27.50
2018-08-09T17:27:59.341Z,27.60
2018-08-09T17:30:02.453Z,20.90
2018-08-09T17:32:04.907Z,20.40
2018-08-09T17:34:07.288Z,20.10
2018-08-09T17:36:09.610Z,20.10
2018-08-09T17:38:11.835Z,20.10
2018-08-09T17:40:22.980Z,20.00
2018-08-09T17:42:25.233Z,20.00
2018-08-09T17:46:29.634Z,19.80
2018-08-09T17:48:31.738Z,19.90
2018-08-09T17:50:33.844Z,20.00
2018-08-09T17:52:36.289Z,19.90
2018-08-09T17:54:38.406Z,19.80
2018-08-09T17:56:40.547Z,20.10
2018-08-09T18:13:00.541Z,19.80
